Time;durP1;ratioP1;P1;durP2;ratioP2;P2;SDS_P1;SDS_P2;PMS_P1;PMS_P2;Temp;Humidity;BMP_temperature;BMP_pressure;BME280_temperature;BME280_humidity;BME280_pressure;Samples;Min_cycle;Max_cycle;Signal;HPM_P1;HPM_P2
2023/07/03 00:02:18;;;;;;;13.75;6.65;;;;;;;15.25;57.99;100346.22;7394339;19;20015;-68
2023/07/03 00:04:47;;;;;;;11.75;6.30;;;;;;;15.25;58.19;100342.72;7392505;19;20386;-68
2023/07/03 00:07:16;;;;;;;14.77;7.40;;;;;;;15.24;58.24;100341.88;7394983;19;20014;-68
2023/07/03 00:09:45;;;;;;;12.20;6.85;;;;;;;15.26;58.45;100344.44;7394154;19;20527;-67
2023/07/03 00:12:14;;;;;;;15.93;7.70;;;;;;;15.26;58.61;100347.06;7394180;19;20015;-68
2023/07/03 00:14:44;;;;;;;13.70;7.80;;;;;;;15.25;58.42;100345.34;7391970;19;20379;-66
2023/07/03 00:17:13;;;;;;;19.55;10.00;;;;;;;15.26;58.55;100341.78;7393993;19;20485;-66
2023/07/03 00:19:44;;;;;;;18.10;8.00;;;;;;;15.25;58.85;100343.59;7394483;19;20019;-66
2023/07/03 00:22:12;;;;;;;17.95;7.43;;;;;;;15.25;58.74;100337.44;7392058;19;20018;-67
2023/07/03 00:24:41;;;;;;;15.95;7.18;;;;;;;15.25;58.84;100338.28;7392392;19;20023;-66
2023/07/03 00:27:09;;;;;;;17.05;7.75;;;;;;;15.23;59.00;100334.88;7394138;19;20039;-71
2023/07/03 00:29:38;;;;;;;12.70;7.10;;;;;;;15.22;59.03;100332.31;7394090;19;20018;-67
2023/07/03 00:32:08;;;;;;;14.48;7.75;;;;;;;15.20;59.26;100327.06;7393600;19;20428;-68
2023/07/03 00:34:36;;;;;;;17.65;8.00;;;;;;;15.18;59.28;100323.66;7391514;19;20372;-68
2023/07/03 00:37:09;;;;;;;12.18;6.88;;;;;;;15.15;59.59;100332.59;7393459;19;20082;-69
2023/07/03 00:39:37;;;;;;;17.38;8.27;;;;;;;15.13;59.63;100329.16;7392062;19;20012;-67
2023/07/03 00:42:06;;;;;;;14.15;6.93;;;;;;;15.10;59.89;100325.78;7393051;19;20010;-66
2023/07/03 00:44:34;;;;;;;16.58;7.63;;;;;;;15.09;60.27;100324.94;7397723;19;20419;-66
2023/07/03 00:47:03;;;;;;;16.80;8.00;;;;;;;15.08;60.15;100335.59;7400282;19;20019;-66
2023/07/03 00:49:33;;;;;;;14.20;8.40;;;;;;;15.06;60.38;100325.06;7398157;19;20372;-67
2023/07/03 00:52:03;;;;;;;15.32;8.10;;;;;;;15.05;60.46;100325.16;7400999;19;20033;-67
2023/07/03 00:54:34;;;;;;;13.80;7.43;;;;;;;15.02;60.47;100334.09;7397938;19;20473;-66
2023/07/03 00:57:03;;;;;;;16.20;8.23;;;;;;;14.99;60.72;100323.69;7400983;19;20022;-66
2023/07/03 00:59:31;;;;;;;16.88;8.13;;;;;;;14.96;60.88;100321.16;7398069;19;20031;-66
2023/07/03 01:02:07;;;;;;;15.10;8.02;;;;;;;14.92;61.18;100314.31;7397919;19;20073;-66
2023/07/03 01:04:43;;;;;;;15.73;8.38;;;;;;;14.89;61.18;100310.03;7397943;19;20022;-67
2023/07/03 01:07:19;;;;;;;14.05;7.70;;;;;;;14.88;61.53;100312.75;7400514;19;20018;-66
2023/07/03 01:09:57;;;;;;;15.43;7.25;;;;;;;14.83;61.71;100311.16;7400344;19;20074;-66
2023/07/03 01:12:29;;;;;;;13.48;7.38;;;;;;;14.79;61.64;100306.97;7397245;19;20443;-67
2023/07/03 01:15:00;;;;;;;17.98;8.57;;;;;;;14.76;61.65;100315.03;7397095;19;20078;-67
2023/07/03 01:17:31;;;;;;;13.18;7.85;;;;;;;14.75;61.77;100310.69;7399793;19;20494;-67
2023/07/03 01:20:02;;;;;;;12.75;7.82;;;;;;;14.73;61.89;100317.78;7397573;19;20018;-67
2023/07/03 01:22:36;;;;;;;16.27;8.23;;;;;;;14.74;62.07;100300.19;7398536;19;20014;-69
2023/07/03 01:25:11;;;;;;;13.07;7.38;;;;;;;14.71;62.36;100300.31;7400076;19;20023;-67
2023/07/03 01:27:44;;;;;;;15.68;8.18;;;;;;;14.68;62.35;100300.47;7396946;19;20015;-67
2023/07/03 01:30:17;;;;;;;15.88;8.65;;;;;;;14.67;62.57;100296.97;7399169;19;20485;-67
2023/07/03 01:32:48;;;;;;;14.50;7.82;;;;;;;14.65;62.65;100296.19;7398659;19;20022;-68
2023/07/03 01:35:19;;;;;;;17.27;9.23;;;;;;;14.63;62.62;100298.00;7397328;19;20015;-67
2023/07/03 01:37:50;;;;;;;19.17;9.63;;;;;;;14.61;62.83;100299.88;7399366;19;20018;-67
2023/07/03 01:40:24;;;;;;;14.75;8.85;;;;;;;14.58;63.12;100289.44;7399552;19;20018;-67
2023/07/03 01:42:55;;;;;;;18.45;9.63;;;;;;;14.58;63.41;100292.06;7398188;19;20022;-67
2023/07/03 01:45:23;;;;;;;20.33;9.63;;;;;;;14.55;63.49;100301.00;7398549;19;20497;-67
2023/07/03 01:47:52;;;;;;;14.65;8.63;;;;;;;14.54;63.62;100294.00;7398344;19;20014;-67
2023/07/03 01:50:26;;;;;;;13.98;8.35;;;;;;;14.53;64.10;100296.72;7398799;19;20039;-67
2023/07/03 01:52:57;;;;;;;15.57;9.68;;;;;;;14.51;64.07;100294.16;7397499;19;20041;-67
2023/07/03 01:55:39;;;;;;;14.98;8.80;;;;;;;14.49;64.25;100296.88;7396973;19;20473;-67
2023/07/03 01:58:14;;;;;;;18.23;8.85;;;;;;;14.49;64.08;100285.44;7398846;19;20028;-67
2023/07/03 02:00:49;;;;;;;19.90;10.02;;;;;;;14.49;64.03;100282.78;7397947;19;20489;-67
2023/07/03 02:03:25;;;;;;;16.00;8.98;;;;;;;14.48;64.34;100278.44;7397142;19;20018;-67
2023/07/03 02:05:57;;;;;;;17.70;9.20;;;;;;;14.48;64.22;100279.31;7397088;19;20014;-67
2023/07/03 02:08:27;;;;;;;13.15;8.27;;;;;;;14.48;64.23;100281.94;7398569;19;20023;-67
2023/07/03 02:10:59;;;;;;;16.98;8.85;;;;;;;14.48;64.36;100281.94;7396171;19;20026;-67
2023/07/03 02:13:27;;;;;;;14.35;8.73;;;;;;;14.48;64.43;100276.66;7396737;19;20035;-67
2023/07/03 02:15:56;;;;;;;12.63;8.23;;;;;;;14.48;64.48;100273.16;7397511;19;20070;-67
2023/07/03 02:18:24;;;;;;;16.23;9.27;;;;;;;14.49;64.67;100282.78;7398796;19;20039;-68
2023/07/03 02:20:53;;;;;;;15.35;8.48;;;;;;;14.49;64.48;100288.94;7398873;19;20024;-67
2023/07/03 02:23:21;;;;;;;16.95;9.38;;;;;;;14.50;64.52;100284.50;7398240;19;20029;-67
2023/07/03 02:25:50;;;;;;;16.33;8.90;;;;;;;14.52;64.72;100295.00;7397420;19;20502;-67
2023/07/03 02:28:21;;;;;;;13.93;8.93;;;;;;;14.51;64.58;100288.88;7397472;19;20101;-67
2023/07/03 02:30:50;;;;;;;15.45;8.82;;;;;;;14.54;64.64;100293.16;7397589;19;20023;-67
2023/07/03 02:33:18;;;;;;;14.93;9.30;;;;;;;14.55;64.85;100292.22;7395993;19;20026;-67
2023/07/03 02:35:47;;;;;;;15.70;8.95;;;;;;;14.57;64.55;100293.00;7396912;19;20028;-67
2023/07/03 02:38:15;;;;;;;19.08;9.38;;;;;;;14.59;64.59;100292.00;7396680;19;20090;-67
2023/07/03 02:40:46;;;;;;;19.25;9.40;;;;;;;14.60;64.47;100303.44;7397012;19;20022;-67
2023/07/03 02:43:15;;;;;;;18.92;9.05;;;;;;;14.62;64.46;100296.28;7395532;19;20026;-67
2023/07/03 02:45:46;;;;;;;14.00;8.38;;;;;;;14.63;64.80;100295.34;7396556;19;20480;-67
2023/07/03 02:48:15;;;;;;;16.67;9.32;;;;;;;14.64;64.51;100294.44;7396453;19;20544;-67
2023/07/03 02:50:43;;;;;;;15.68;8.93;;;;;;;14.66;64.60;100295.25;7396290;19;20040;-67
2023/07/03 02:53:12;;;;;;;19.30;9.50;;;;;;;14.67;64.58;100289.03;7395885;19;20026;-66
2023/07/03 02:55:40;;;;;;;19.60;9.30;;;;;;;14.68;64.76;100295.19;7394377;19;20418;-66
2023/07/03 02:58:09;;;;;;;14.77;8.55;;;;;;;14.67;64.73;100296.97;7394391;19;20015;-66
2023/07/03 03:00:37;;;;;;;18.20;9.93;;;;;;;14.66;64.90;100288.19;7396404;19;20031;-67
2023/07/03 03:03:08;;;;;;;14.88;9.02;;;;;;;14.68;64.67;100284.63;7395881;19;20015;-67
2023/07/03 03:05:43;;;;;;;18.02;8.82;;;;;;;14.67;65.10;100286.41;7394228;19;20098;-66
2023/07/03 03:08:18;;;;;;;16.15;8.90;;;;;;;14.68;65.21;100279.34;7394752;19;20106;-66
2023/07/03 03:10:46;;;;;;;16.98;9.65;;;;;;;14.67;65.12;100273.19;7395495;19;20422;-66
2023/07/03 03:13:15;;;;;;;17.30;10.32;;;;;;;14.68;65.10;100271.44;7394471;19;20018;-66
2023/07/03 03:15:43;;;;;;;17.58;10.07;;;;;;;14.68;65.38;100272.28;7394005;19;20018;-66
2023/07/03 03:18:15;;;;;;;20.13;10.88;;;;;;;14.68;65.38;100274.91;7395947;19;20022;-66
2023/07/03 03:20:43;;;;;;;19.50;10.57;;;;;;;14.68;65.39;100274.06;7396193;19;20018;-66
2023/07/03 03:23:12;;;;;;;19.10;10.63;;;;;;;14.69;65.42;100263.44;7394659;19;20672;-67
2023/07/03 03:25:40;;;;;;;16.50;10.27;;;;;;;14.69;65.60;100263.44;7395783;19;20031;-66
2023/07/03 03:28:09;;;;;;;18.95;10.20;;;;;;;14.69;65.61;100268.72;7393557;19;20035;-66
2023/07/03 03:30:37;;;;;;;16.63;10.07;;;;;;;14.70;65.85;100264.28;7395459;19;20070;-66
2023/07/03 03:33:06;;;;;;;22.60;10.88;;;;;;;14.69;65.82;100260.78;7394902;19;20022;-66
2023/07/03 03:35:37;;;;;;;19.00;10.68;;;;;;;14.71;66.02;100255.44;7392727;19;20040;-65
2023/07/03 03:38:05;;;;;;;17.27;10.95;;;;;;;14.69;65.82;100260.78;7394905;19;20514;-67
2023/07/03 03:40:34;;;;;;;18.48;9.88;;;;;;;14.73;65.75;100261.50;7394427;19;20011;-67
2023/07/03 03:43:02;;;;;;;20.90;10.90;;;;;;;14.74;65.80;100263.22;7394048;19;20026;-66
2023/07/03 03:45:31;;;;;;;19.90;10.95;;;;;;;14.75;65.88;100260.50;7392622;19;20032;-66
2023/07/03 03:47:59;;;;;;;18.38;10.25;;;;;;;14.76;65.86;100262.22;7394246;19;20506;-66
2023/07/03 03:50:29;;;;;;;17.90;10.27;;;;;;;14.78;66.16;100267.44;7394488;19;20477;-66
2023/07/03 03:53:00;;;;;;;20.42;11.63;;;;;;;14.79;66.12;100267.34;7393957;19;20015;-66
2023/07/03 03:55:29;;;;;;;17.77;9.90;;;;;;;14.82;66.17;100266.34;7392822;19;20553;-66
2023/07/03 03:57:57;;;;;;;21.05;10.05;;;;;;;14.84;65.96;100269.78;7394487;19;20036;-66
2023/07/03 04:00:26;;;;;;;17.20;11.10;;;;;;;14.86;65.98;100261.78;7392261;19;20027;-66
2023/07/03 04:02:54;;;;;;;18.27;10.88;;;;;;;14.87;65.96;100258.22;7392561;19;20373;-66
2023/07/03 04:05:23;;;;;;;17.35;10.25;;;;;;;14.90;66.07;100256.28;7391987;19;20022;-66
2023/07/03 04:07:51;;;;;;;16.40;10.88;;;;;;;14.93;66.10;100255.28;7394612;19;20018;-67
2023/07/03 04:10:23;;;;;;;18.88;10.25;;;;;;;14.95;66.14;100256.91;7394463;19;20039;-66
2023/07/03 04:12:51;;;;;;;23.67;10.95;;;;;;;14.99;66.16;100257.63;7391956;19;20481;-67
2023/07/03 04:15:20;;;;;;;18.67;10.75;;;;;;;15.00;65.97;100256.72;7392871;19;20023;-66
2023/07/03 04:17:48;;;;;;;18.08;10.15;;;;;;;15.04;65.96;100257.41;7398223;19;20027;-67
2023/07/03 04:20:17;;;;;;;19.85;10.88;;;;;;;15.06;66.16;100256.38;7401460;19;20086;-67
2023/07/03 04:22:46;;;;;;;17.40;10.27;;;;;;;15.09;65.81;100253.63;7401081;19;20104;-67
2023/07/03 04:25:15;;;;;;;16.88;9.95;;;;;;;15.13;66.25;100255.16;7398744;19;20014;-67
2023/07/03 04:27:46;;;;;;;20.88;11.98;;;;;;;15.18;66.14;100254.09;7398676;19;20025;-67
2023/07/03 04:30:15;;;;;;;22.52;11.18;;;;;;;15.19;65.80;100261.97;7398423;19;20070;-67
2023/07/03 04:32:53;;;;;;;17.95;10.45;;;;;;;15.20;65.85;100265.44;7398409;19;20023;-67
2023/07/03 04:35:22;;;;;;;22.05;11.43;;;;;;;15.23;66.07;100257.38;7399989;19;20019;-67
2023/07/03 04:37:50;;;;;;;24.77;11.35;;;;;;;15.25;66.20;100258.16;7397713;19;20018;-67
2023/07/03 04:40:20;;;;;;;22.67;13.15;;;;;;;15.28;66.03;100258.84;7400837;19;20039;-66
2023/07/03 04:42:51;;;;;;;19.80;10.90;;;;;;;15.32;66.07;100263.06;7399369;19;20481;-68
2023/07/03 04:45:21;;;;;;;20.30;10.95;;;;;;;15.36;66.19;100265.56;7401258;19;20019;-67
2023/07/03 04:47:49;;;;;;;23.67;11.68;;;;;;;15.37;66.35;100273.41;7398609;19;20094;-67
2023/07/03 04:50:21;;;;;;;18.00;11.30;;;;;;;15.39;66.36;100268.91;7400424;19;20085;-67
2023/07/03 04:52:50;;;;;;;18.40;10.35;;;;;;;15.42;66.20;100266.09;7398114;19;20018;-65
2023/07/03 04:55:19;;;;;;;20.33;11.45;;;;;;;15.44;66.43;100266.88;7397460;19;20360;-68
2023/07/03 04:57:48;;;;;;;23.88;11.63;;;;;;;15.48;66.07;100263.16;7399471;19;20018;-67
2023/07/03 05:00:21;;;;;;;19.77;10.80;;;;;;;15.52;66.09;100265.63;7399522;19;20019;-67
2023/07/03 05:02:51;;;;;;;22.27;11.90;;;;;;;15.54;66.09;100264.63;7396844;19;20383;-68
2023/07/03 05:05:21;;;;;;;19.85;11.57;;;;;;;15.57;66.09;100264.47;7398613;19;20017;-67
2023/07/03 05:07:56;;;;;;;21.17;12.57;;;;;;;15.59;66.23;100262.59;7396236;19;20010;-67
2023/07/03 05:10:25;;;;;;;25.88;13.02;;;;;;;15.63;66.29;100266.81;7400895;19;20478;-67
2023/07/03 05:12:54;;;;;;;23.92;12.48;;;;;;;15.68;66.34;100260.44;7398799;19;20018;-68
2023/07/03 05:15:25;;;;;;;23.70;12.82;;;;;;;15.72;66.27;100267.28;7397600;19;20018;-67
2023/07/03 05:17:55;;;;;;;20.67;11.35;;;;;;;15.76;66.48;100274.97;7395479;19;20493;-66
2023/07/03 05:20:25;;;;;;;18.20;11.70;;;;;;;15.77;66.17;100271.41;7395107;19;20031;-68
2023/07/03 05:22:55;;;;;;;22.20;12.30;;;;;;;15.79;66.44;100273.97;7395678;19;20074;-67
2023/07/03 05:25:24;;;;;;;22.13;11.10;;;;;;;15.83;66.53;100275.53;7395443;19;20011;-67
2023/07/03 05:27:52;;;;;;;19.95;12.45;;;;;;;15.86;66.54;100274.53;7398514;19;20022;-67
2023/07/03 05:30:21;;;;;;;21.23;11.38;;;;;;;15.90;66.23;100281.41;7398973;19;20505;-67
2023/07/03 05:32:52;;;;;;;18.88;11.07;;;;;;;15.93;66.38;100271.50;7398559;19;20039;-66
2023/07/03 05:35:20;;;;;;;24.33;11.23;;;;;;;16.00;66.42;100273.81;7398315;19;20077;-67
2023/07/03 05:37:49;;;;;;;19.63;11.50;;;;;;;16.06;66.33;100274.38;7398369;19;20018;-66
2023/07/03 05:40:18;;;;;;;18.90;11.27;;;;;;;16.16;66.49;100276.53;7396102;19;20022;-66
2023/07/03 05:42:46;;;;;;;19.55;11.77;;;;;;;16.25;65.90;100266.31;7397684;19;20023;-67
2023/07/03 05:45:15;;;;;;;25.77;12.43;;;;;;;16.35;65.79;100271.13;7396341;19;20018;-67
2023/07/03 05:47:44;;;;;;;19.38;11.20;;;;;;;16.45;65.45;100270.56;7397767;19;20027;-67
2023/07/03 05:50:15;;;;;;;29.52;12.35;;;;;;;16.57;65.21;100274.31;7398455;19;20035;-66
2023/07/03 05:52:44;;;;;;;24.23;11.77;;;;;;;16.66;65.28;100278.25;7398370;19;20010;-68
2023/07/03 05:55:12;;;;;;;26.52;11.95;;;;;;;16.77;64.57;100280.34;7397292;19;20014;-67
2023/07/03 05:57:41;;;;;;;19.55;11.10;;;;;;;16.87;64.53;100273.59;7395693;19;20014;-67
2023/07/03 06:00:13;;;;;;;23.38;12.07;;;;;;;16.97;64.31;100268.63;7397433;19;20035;-66
2023/07/03 06:02:42;;;;;;;21.20;11.35;;;;;;;17.07;63.95;100272.50;7397383;19;20499;-67
2023/07/03 06:05:15;;;;;;;23.23;11.70;;;;;;;17.18;63.36;100278.97;7397466;19;20453;-66
2023/07/03 06:07:43;;;;;;;22.77;11.93;;;;;;;17.28;63.07;100272.22;7396073;19;20014;-67
2023/07/03 06:10:13;;;;;;;30.55;16.30;;;;;;;17.37;62.74;100282.28;7395956;19;20035;-67
2023/07/03 06:12:42;;;;;;;21.48;12.98;;;;;;;17.47;62.32;100279.13;7395568;19;20381;-68
2023/07/03 06:15:11;;;;;;;18.33;11.50;;;;;;;17.53;61.75;100287.56;7396841;19;20018;-66
2023/07/03 06:17:42;;;;;;;22.45;11.93;;;;;;;17.58;61.49;100277.53;7397861;19;20014;-67
2023/07/03 06:20:12;;;;;;;23.73;11.52;;;;;;;17.64;61.17;100286.94;7395575;19;20029;-66
2023/07/03 06:22:44;;;;;;;18.25;10.73;;;;;;;17.70;60.97;100289.22;7395709;19;20014;-66
2023/07/03 06:25:13;;;;;;;20.52;11.38;;;;;;;17.75;60.73;100292.47;7396990;19;20022;-66
2023/07/03 06:27:41;;;;;;;28.50;11.73;;;;;;;17.80;60.92;100292.19;7393759;19;20014;-65
2023/07/03 06:30:11;;;;;;;18.98;10.80;;;;;;;17.85;60.47;100284.78;7397075;19;20031;-66
2023/07/03 06:32:39;;;;;;;20.42;10.70;;;;;;;17.91;60.44;100283.59;7396609;19;20036;-66
2023/07/03 06:35:08;;;;;;;17.17;10.32;;;;;;;17.99;60.15;100288.47;7395192;19;20025;-66
2023/07/03 06:37:37;;;;;;;17.55;9.82;;;;;;;18.06;59.70;100279.19;7396907;19;20023;-67
2023/07/03 06:40:10;;;;;;;22.17;8.98;;;;;;;18.15;58.71;100283.09;7394733;19;20497;-67
2023/07/03 06:42:39;;;;;;;17.35;9.65;;;;;;;18.22;58.85;100285.28;7396456;19;20022;-67
2023/07/03 06:45:09;;;;;;;19.25;9.63;;;;;;;18.27;58.47;100292.94;7394725;19;20035;-67
2023/07/03 06:47:37;;;;;;;14.60;9.40;;;;;;;18.33;58.13;100287.25;7396691;19;20018;-67
2023/07/03 06:50:07;;;;;;;19.23;9.25;;;;;;;18.37;57.94;100287.94;7395765;19;20189;-66
2023/07/03 06:52:37;;;;;;;16.20;9.25;;;;;;;18.43;57.99;100292.03;7396374;19;20347;-68
2023/07/03 06:55:09;;;;;;;13.98;8.98;;;;;;;18.49;57.30;100295.13;7397215;19;20031;-68
2023/07/03 06:57:38;;;;;;;18.25;9.02;;;;;;;18.54;57.28;100300.19;7396187;19;20039;-67
2023/07/03 07:00:08;;;;;;;17.58;10.50;;;;;;;18.59;57.71;100307.84;7395702;19;20026;-69
2023/07/03 07:02:37;;;;;;;17.55;10.25;;;;;;;18.65;57.34;100297.72;7395718;19;20010;-69
2023/07/03 07:05:06;;;;;;;16.30;7.97;;;;;;;18.72;56.87;100299.00;7395505;19;20021;-69
2023/07/03 07:07:41;;;;;;;18.42;9.45;;;;;;;18.80;56.87;100295.00;7392404;19;20107;-68
2023/07/03 07:10:12;;;;;;;15.95;8.32;;;;;;;18.82;56.27;100301.94;7394858;19;20018;-69
2023/07/03 07:12:41;;;;;;;18.40;8.55;;;;;;;18.87;56.18;100296.34;7393744;19;20026;-69
2023/07/03 07:15:11;;;;;;;15.95;8.05;;;;;;;18.88;55.35;100301.56;7394702;19;20022;-68
2023/07/03 07:17:39;;;;;;;16.90;8.45;;;;;;;18.92;55.40;100296.94;7395652;19;20018;-67
2023/07/03 07:20:09;;;;;;;16.95;7.55;;;;;;;18.98;55.35;100295.66;7394332;19;20548;-68
2023/07/03 07:22:38;;;;;;;14.55;7.35;;;;;;;19.04;54.64;100300.59;7394692;19;20019;-69
2023/07/03 07:25:07;;;;;;;16.05;6.88;;;;;;;19.12;54.08;100294.78;7394536;19;20501;-68
2023/07/03 07:27:39;;;;;;;13.13;7.75;;;;;;;19.18;53.66;100310.34;7395026;19;20064;-68
2023/07/03 07:30:09;;;;;;;10.70;5.95;;;;;;;19.26;52.60;100312.50;7395325;19;20035;-67
2023/07/03 07:32:37;;;;;;;17.10;6.90;;;;;;;19.29;52.33;100302.50;7394803;19;20046;-68
2023/07/03 07:35:10;;;;;;;17.77;6.07;;;;;;;19.32;51.28;100297.00;7392748;19;20022;-67
2023/07/03 07:37:39;;;;;;;15.90;6.65;;;;;;;19.36;51.92;100298.50;7394671;19;20018;-67
2023/07/03 07:40:09;;;;;;;13.82;7.25;;;;;;;19.41;51.30;100303.53;7394855;19;20042;-69
2023/07/03 07:42:41;;;;;;;14.90;6.63;;;;;;;19.47;50.95;100315.56;7394550;19;20046;-68
2023/07/03 07:45:10;;;;;;;12.23;7.57;;;;;;;19.50;51.12;100310.91;7395141;19;20027;-68
2023/07/03 07:47:38;;;;;;;13.60;6.60;;;;;;;19.55;50.56;100305.28;7392634;19;20077;-69
2023/07/03 07:50:08;;;;;;;14.30;6.70;;;;;;;19.57;50.22;100306.00;7394953;19;20031;-69
2023/07/03 07:52:37;;;;;;;12.63;6.28;;;;;;;19.59;50.07;100293.47;7396070;19;20023;-69
2023/07/03 07:55:07;;;;;;;10.05;5.85;;;;;;;19.61;49.65;100302.19;7401757;19;20018;-68
2023/07/03 07:57:36;;;;;;;14.45;5.78;;;;;;;19.65;49.28;100302.84;7401467;19;20014;-68
2023/07/03 08:00:08;;;;;;;13.77;6.88;;;;;;;19.73;49.48;100297.00;7401181;19;20040;-69
2023/07/03 08:02:37;;;;;;;15.55;7.05;;;;;;;19.80;48.78;100295.63;7398688;19;20480;-69
2023/07/03 08:05:06;;;;;;;13.02;6.72;;;;;;;19.82;48.52;100291.06;7401864;19;20018;-69
2023/07/03 08:07:34;;;;;;;11.90;6.68;;;;;;;19.79;48.91;100293.91;7399125;19;20015;-69
2023/07/03 08:10:03;;;;;;;14.15;7.35;;;;;;;19.74;48.85;100296.03;7401309;19;20024;-69
2023/07/03 08:12:32;;;;;;;18.27;7.90;;;;;;;19.69;48.98;100288.38;7398307;19;20019;-69
2023/07/03 08:15:01;;;;;;;12.98;7.18;;;;;;;19.61;49.52;100306.66;7398440;19;20022;-67
2023/07/03 08:17:32;;;;;;;13.85;7.43;;;;;;;19.52;49.58;100314.31;7398021;19;20422;-66
2023/07/03 08:20:00;;;;;;;16.70;6.97;;;;;;;19.44;49.73;100308.63;7401694;19;20015;-67
2023/07/03 08:22:29;;;;;;;16.00;7.95;;;;;;;19.36;49.72;100309.16;7400751;19;20026;-68
2023/07/03 08:24:58;;;;;;;13.20;6.18;;;;;;;19.33;49.90;100313.81;7398235;19;20010;-65
2023/07/03 08:27:26;;;;;;;10.27;5.78;;;;;;;19.28;49.34;100322.06;7398313;19;20018;-67
2023/07/03 08:29:56;;;;;;;13.07;5.90;;;;;;;19.22;47.74;100338.44;7397758;19;20031;-66
2023/07/03 08:32:25;;;;;;;14.27;5.25;;;;;;;19.15;46.84;100332.66;7400725;19;20015;-67
2023/07/03 08:34:57;;;;;;;11.02;5.25;;;;;;;19.12;47.29;100324.03;7397763;19;20023;-68
2023/07/03 08:37:25;;;;;;;13.50;5.88;;;;;;;19.10;47.51;100316.16;7397587;19;20426;-70
2023/07/03 08:39:54;;;;;;;13.00;6.03;;;;;;;19.13;47.27;100329.28;7400051;19;20014;-66
2023/07/03 08:42:27;;;;;;;12.05;4.53;;;;;;;19.16;46.66;100323.75;7397495;19;20018;-66
2023/07/03 08:44:56;;;;;;;;;;;;;;;19.20;45.21;100321.75;7401945;19;20129;-66
2023/07/03 08:47:29;;;;;;;10.73;4.82;;;;;;;19.25;45.69;100338.25;7399931;19;20342;-66
2023/07/03 08:50:03;;;;;;;15.43;5.18;;;;;;;19.30;44.54;100335.31;7400152;19;20499;-67
2023/07/03 08:52:36;;;;;;;;;;;;;;;19.26;43.41;100334.63;7401261;19;20018;-68
2023/07/03 08:55:05;;;;;;;10.10;3.95;;;;;;;19.23;45.37;100334.81;7399865;19;19918;-67
2023/07/03 08:57:35;;;;;;;13.75;4.60;;;;;;;19.18;45.46;100323.63;7397710;19;20086;-67
2023/07/03 09:00:10;;;;;;;16.85;8.13;;;;;;;19.16;45.66;100318.41;7400249;19;20018;-67
2023/07/03 09:02:48;;;;;;;10.85;4.25;;;;;;;19.18;44.84;100327.16;7400556;19;20409;-70
2023/07/03 09:05:32;;;;;;;13.23;5.28;;;;;;;19.18;44.59;100321.84;7400100;19;20026;-67
2023/07/03 09:08:03;;;;;;;13.10;4.50;;;;;;;19.19;45.21;100314.72;7398202;19;20023;-68
2023/07/03 09:10:38;;;;;;;14.88;5.13;;;;;;;19.23;45.18;100332.16;7397841;19;20036;-67
2023/07/03 09:13:12;;;;;;;8.45;4.32;;;;;;;19.30;44.36;100336.13;7399049;19;20031;-67
2023/07/03 09:15:48;;;;;;;11.13;4.28;;;;;;;19.40;43.58;100341.72;7398871;19;20489;-67
2023/07/03 09:18:22;;;;;;;12.25;3.85;;;;;;;19.51;42.92;100327.69;7399663;19;20035;-67
2023/07/03 09:20:56;;;;;;;8.82;3.53;;;;;;;19.60;40.69;100353.72;7396763;19;20372;-66
2023/07/03 09:23:30;;;;;;;11.38;4.28;;;;;;;19.65;41.09;100348.06;7398936;19;20035;-66
2023/07/03 09:26:06;;;;;;;11.73;3.25;;;;;;;19.65;41.13;100343.63;7399868;19;20026;-67
2023/07/03 09:28:39;;;;;;;10.25;3.58;;;;;;;19.65;41.37;100356.06;7398051;19;20040;-67
2023/07/03 09:31:07;;;;;;;8.10;3.60;;;;;;;19.64;42.19;100365.03;7399441;19;20025;-67
2023/07/03 09:33:36;;;;;;;10.15;3.35;;;;;;;19.62;41.70;100362.44;7397734;19;20022;-67
2023/07/03 09:36:23;;;;;;;9.07;3.38;;;;;;;19.65;40.38;100354.28;7396271;19;20034;-68
2023/07/03 09:38:52;;;;;;;7.82;3.00;;;;;;;19.73;41.03;100356.41;7397807;19;20010;-69
2023/07/03 09:41:29;;;;;;;10.18;3.58;;;;;;;19.80;37.94;100370.16;7397895;19;20494;-70
2023/07/03 09:43:58;;;;;;;7.53;3.15;;;;;;;19.84;38.83;100371.69;7397145;19;20032;-67
2023/07/03 09:46:26;;;;;;;7.97;3.00;;;;;;;19.86;39.35;100361.81;7395560;19;20035;-68
2023/07/03 09:48:55;;;;;;;7.15;2.75;;;;;;;19.92;39.33;100361.41;7396236;19;20026;-67
2023/07/03 09:51:30;;;;;;;11.30;2.95;;;;;;;19.97;37.72;100359.28;7395582;19;20380;-67
2023/07/03 09:54:00;;;;;;;8.70;3.28;;;;;;;20.04;38.62;100361.53;7397295;19;20031;-67
2023/07/03 09:56:32;;;;;;;7.25;3.10;;;;;;;20.13;38.23;100350.22;7397487;19;20355;-67
2023/07/03 09:59:03;;;;;;;9.30;3.63;;;;;;;20.21;38.64;100350.56;7397895;19;20082;-68
2023/07/03 10:01:33;;;;;;;6.90;2.88;;;;;;;20.23;38.12;100356.63;7396420;19;20014;-66
2023/07/03 10:04:07;;;;;;;9.18;3.05;;;;;;;20.23;38.19;100369.94;7396405;19;20018;-68
2023/07/03 10:06:40;;;;;;;7.20;2.55;;;;;;;20.23;38.25;100363.78;7396913;19;20034;-66
2023/07/03 10:09:18;;;;;;;11.02;3.50;;;;;;;20.22;38.61;100354.94;7395933;19;20485;-69
2023/07/03 10:11:53;;;;;;;8.90;3.47;;;;;;;20.28;38.24;100351.88;7398072;19;20018;-67
2023/07/03 10:14:28;;;;;;;8.88;3.17;;;;;;;20.30;38.09;100349.09;7394469;19;20019;-67
2023/07/03 10:16:57;;;;;;;6.50;2.67;;;;;;;20.34;38.25;100359.41;7396048;19;20025;-68
2023/07/03 10:19:26;;;;;;;8.95;3.10;;;;;;;20.35;38.58;100363.78;7397464;19;20031;-68
2023/07/03 10:21:58;;;;;;;7.65;3.45;;;;;;;20.42;38.58;100380.22;7396598;19;20371;-67
2023/07/03 10:24:27;;;;;;;11.07;3.35;;;;;;;20.46;38.39;100365.72;7394864;19;20423;-69
2023/07/03 10:27:01;;;;;;;8.60;3.65;;;;;;;20.52;38.78;100361.75;7396531;19;20552;-68
2023/07/03 10:29:37;;;;;;;10.88;3.50;;;;;;;20.55;38.65;100366.91;7396488;19;20040;-68
2023/07/03 10:32:11;;;;;;;11.95;4.18;;;;;;;20.59;39.05;100367.53;7396552;19;20431;-68
2023/07/03 10:34:45;;;;;;;8.18;4.10;;;;;;;20.62;39.23;100357.50;7394392;19;20025;-68
2023/07/03 10:37:20;;;;;;;12.60;4.00;;;;;;;20.68;39.38;100375.72;7397176;19;20114;-68
2023/07/03 10:39:55;;;;;;;10.60;3.65;;;;;;;20.67;38.85;100376.69;7397459;19;20018;-69
2023/07/03 10:42:28;;;;;;;9.07;3.15;;;;;;;20.64;38.44;100366.25;7395786;19;20022;-67
2023/07/03 10:45:02;;;;;;;10.27;2.88;;;;;;;20.64;38.52;100366.25;7396422;19;20529;-66
2023/07/03 10:47:36;;;;;;;9.00;3.03;;;;;;;20.68;38.84;100362.38;7396436;19;20448;-72
2023/07/03 10:50:05;;;;;;;;;;;;;;;20.76;39.40;100366.38;7397396;19;20419;-69
2023/07/03 10:52:43;;;;;;;9.63;2.92;;;;;;;20.81;38.45;100372.22;7396684;19;19935;-69
2023/07/03 10:55:20;;;;;;;9.13;3.22;;;;;;;20.86;37.58;100375.41;7394418;19;20031;-70
2023/07/03 10:57:54;;;;;;;8.82;3.03;;;;;;;20.88;37.53;100368.16;7394410;19;20015;-69
2023/07/03 11:00:36;;;;;;;8.45;2.80;;;;;;;20.97;36.30;100356.00;7396119;19;20022;-70
2023/07/03 11:03:15;;;;;;;7.05;3.13;;;;;;;21.08;36.55;100372.09;7395277;19;20102;-70
2023/07/03 11:05:51;;;;;;;9.07;2.63;;;;;;;21.18;36.77;100380.28;7396043;19;20338;-69
2023/07/03 11:08:28;;;;;;;10.10;2.63;;;;;;;21.26;35.94;100366.38;7393491;19;20014;-70
2023/07/03 11:11:09;;;;;;;6.90;2.60;;;;;;;21.37;36.17;100373.59;7396464;19;20022;-69
2023/07/03 11:13:49;;;;;;;8.32;3.15;;;;;;;21.51;36.63;100361.91;7395061;19;20018;-69
2023/07/03 11:16:19;;;;;;;8.77;2.72;;;;;;;21.63;36.00;100369.03;7394906;19;20010;-70
2023/07/03 11:19:06;;;;;;;7.30;2.72;;;;;;;21.76;35.71;100358.28;7394613;19;20071;-69
2023/07/03 11:21:44;;;;;;;5.32;2.90;;;;;;;21.86;35.79;100363.78;7392757;19;20018;-69
2023/07/03 11:24:20;;;;;;;6.80;2.45;;;;;;;21.90;35.66;100368.78;7392775;19;20381;-69
2023/07/03 11:26:54;;;;;;;10.18;3.20;;;;;;;21.88;34.60;100365.38;7393819;19;20036;-70
2023/07/03 11:29:23;;;;;;;10.27;2.60;;;;;;;21.95;35.14;100371.97;7396291;19;20036;-72
2023/07/03 11:31:53;;;;;;;6.00;2.47;;;;;;;22.02;34.70;100363.50;7394948;19;20023;-70
2023/07/03 11:34:23;;;;;;;7.95;2.35;;;;;;;22.16;33.89;100371.28;7393391;19;20484;-69